sensor_id;sensor_type;location;lat;lon;timestamp;P1;durP1;ratioP1;P2;durP2;ratioP2
33836;SDS011;20140;49.356;8.812;2022-12-07T00:00:41;13.73;;;9.07;;
33836;SDS011;20140;49.356;8.812;2022-12-07T00:03:06;14.27;;;8.90;;
33836;SDS011;20140;49.356;8.812;2022-12-07T00:05:32;13.07;;;9.27;;
33836;SDS011;20140;49.356;8.812;2022-12-07T00:07:57;13.87;;;9.47;;
33836;SDS011;20140;49.356;8.812;2022-12-07T00:10:23;15.40;;;10.17;;
33836;SDS011;20140;49.356;8.812;2022-12-07T00:12:48;11.30;;;8.43;;
33836;SDS011;20140;49.356;8.812;2022-12-07T00:15:15;12.43;;;8.90;;
33836;SDS011;20140;49.356;8.812;2022-12-07T00:17:42;11.25;;;9.18;;
33836;SDS011;20140;49.356;8.812;2022-12-07T00:20:08;17.33;;;8.23;;
33836;SDS011;20140;49.356;8.812;2022-12-07T00:22:33;12.27;;;8.88;;
33836;SDS011;20140;49.356;8.812;2022-12-07T00:24:59;14.60;;;9.90;;
33836;SDS011;20140;49.356;8.812;2022-12-07T00:27:24;13.00;;;9.50;;
33836;SDS011;20140;49.356;8.812;2022-12-07T00:29:51;15.80;;;10.85;;
33836;SDS011;20140;49.356;8.812;2022-12-07T00:32:17;14.33;;;10.90;;
33836;SDS011;20140;49.356;8.812;2022-12-07T00:34:42;13.93;;;9.63;;
33836;SDS011;20140;49.356;8.812;2022-12-07T00:37:08;12.80;;;8.50;;
33836;SDS011;20140;49.356;8.812;2022-12-07T00:39:34;13.52;;;8.80;;
33836;SDS011;20140;49.356;8.812;2022-12-07T00:41:59;12.20;;;9.32;;
33836;SDS011;20140;49.356;8.812;2022-12-07T00:44:25;14.10;;;9.48;;
33836;SDS011;20140;49.356;8.812;2022-12-07T00:46:50;11.90;;;9.48;;
33836;SDS011;20140;49.356;8.812;2022-12-07T00:49:16;12.18;;;8.80;;
33836;SDS011;20140;49.356;8.812;2022-12-07T00:51:41;14.87;;;9.57;;
33836;SDS011;20140;49.356;8.812;2022-12-07T00:54:07;15.70;;;10.27;;
33836;SDS011;20140;49.356;8.812;2022-12-07T00:56:32;14.00;;;10.10;;
33836;SDS011;20140;49.356;8.812;2022-12-07T00:59:00;15.25;;;10.55;;
33836;SDS011;20140;49.356;8.812;2022-12-07T01:01:27;11.70;;;9.27;;
33836;SDS011;20140;49.356;8.812;2022-12-07T01:03:55;14.52;;;10.15;;
33836;SDS011;20140;49.356;8.812;2022-12-07T01:06:21;16.42;;;10.60;;
33836;SDS011;20140;49.356;8.812;2022-12-07T01:08:48;14.98;;;10.43;;
33836;SDS011;20140;49.356;8.812;2022-12-07T01:11:15;13.13;;;9.40;;
33836;SDS011;20140;49.356;8.812;2022-12-07T01:13:42;14.60;;;9.98;;
33836;SDS011;20140;49.356;8.812;2022-12-07T01:16:09;11.65;;;9.23;;
33836;SDS011;20140;49.356;8.812;2022-12-07T01:18:37;13.88;;;9.85;;
33836;SDS011;20140;49.356;8.812;2022-12-07T01:21:10;12.40;;;9.13;;
33836;SDS011;20140;49.356;8.812;2022-12-07T01:23:38;13.57;;;9.27;;
33836;SDS011;20140;49.356;8.812;2022-12-07T01:26:04;14.52;;;9.15;;
33836;SDS011;20140;49.356;8.812;2022-12-07T01:28:32;15.85;;;9.18;;
33836;SDS011;20140;49.356;8.812;2022-12-07T01:31:02;16.10;;;9.50;;
33836;SDS011;20140;49.356;8.812;2022-12-07T01:33:33;11.77;;;8.07;;
33836;SDS011;20140;49.356;8.812;2022-12-07T01:36:19;15.23;;;9.03;;
33836;SDS011;20140;49.356;8.812;2022-12-07T01:38:47;15.48;;;9.88;;
33836;SDS011;20140;49.356;8.812;2022-12-07T01:41:16;15.20;;;9.02;;
33836;SDS011;20140;49.356;8.812;2022-12-07T01:46:32;12.55;;;8.32;;
33836;SDS011;20140;49.356;8.812;2022-12-07T01:48:57;11.90;;;8.40;;
33836;SDS011;20140;49.356;8.812;2022-12-07T01:51:23;12.93;;;9.10;;
33836;SDS011;20140;49.356;8.812;2022-12-07T01:53:49;12.17;;;9.03;;
33836;SDS011;20140;49.356;8.812;2022-12-07T01:56:17;15.32;;;9.30;;
33836;SDS011;20140;49.356;8.812;2022-12-07T01:58:45;15.25;;;9.95;;
33836;SDS011;20140;49.356;8.812;2022-12-07T02:01:12;14.13;;;9.65;;
33836;SDS011;20140;49.356;8.812;2022-12-07T02:03:39;13.27;;;9.40;;
33836;SDS011;20140;49.356;8.812;2022-12-07T02:06:08;13.02;;;8.75;;
33836;SDS011;20140;49.356;8.812;2022-12-07T02:08:36;12.43;;;8.38;;
33836;SDS011;20140;49.356;8.812;2022-12-07T02:11:03;11.63;;;7.82;;
33836;SDS011;20140;49.356;8.812;2022-12-07T02:13:31;12.33;;;8.80;;
33836;SDS011;20140;49.356;8.812;2022-12-07T02:18:38;11.95;;;9.20;;
33836;SDS011;20140;49.356;8.812;2022-12-07T02:21:51;12.35;;;8.93;;
33836;SDS011;20140;49.356;8.812;2022-12-07T02:24:42;10.68;;;7.18;;
33836;SDS011;20140;49.356;8.812;2022-12-07T02:30:10;15.10;;;8.90;;
33836;SDS011;20140;49.356;8.812;2022-12-07T02:35:12;13.55;;;8.75;;
33836;SDS011;20140;49.356;8.812;2022-12-07T02:37:49;12.50;;;9.05;;
33836;SDS011;20140;49.356;8.812;2022-12-07T02:40:21;9.80;;;7.83;;
33836;SDS011;20140;49.356;8.812;2022-12-07T02:43:00;13.60;;;9.40;;
33836;SDS011;20140;49.356;8.812;2022-12-07T02:45:29;16.08;;;9.45;;
33836;SDS011;20140;49.356;8.812;2022-12-07T02:47:57;14.55;;;10.25;;
33836;SDS011;20140;49.356;8.812;2022-12-07T02:50:25;14.68;;;9.75;;
33836;SDS011;20140;49.356;8.812;2022-12-07T02:52:51;14.93;;;10.57;;
33836;SDS011;20140;49.356;8.812;2022-12-07T02:55:17;21.40;;;9.87;;
33836;SDS011;20140;49.356;8.812;2022-12-07T03:00:41;12.00;;;8.65;;
33836;SDS011;20140;49.356;8.812;2022-12-07T03:03:17;12.52;;;9.00;;
33836;SDS011;20140;49.356;8.812;2022-12-07T03:08:43;11.70;;;8.55;;
33836;SDS011;20140;49.356;8.812;2022-12-07T03:11:30;11.88;;;8.15;;
33836;SDS011;20140;49.356;8.812;2022-12-07T03:14:13;11.85;;;8.32;;
33836;SDS011;20140;49.356;8.812;2022-12-07T03:16:54;12.70;;;9.20;;
33836;SDS011;20140;49.356;8.812;2022-12-07T03:19:23;13.52;;;9.27;;
33836;SDS011;20140;49.356;8.812;2022-12-07T03:21:58;13.43;;;9.35;;
33836;SDS011;20140;49.356;8.812;2022-12-07T03:24:29;13.70;;;9.55;;
33836;SDS011;20140;49.356;8.812;2022-12-07T03:27:33;13.20;;;9.60;;
33836;SDS011;20140;49.356;8.812;2022-12-07T03:30:37;14.38;;;8.80;;
33836;SDS011;20140;49.356;8.812;2022-12-07T03:35:34;15.85;;;9.75;;
33836;SDS011;20140;49.356;8.812;2022-12-07T03:38:14;13.10;;;9.60;;
33836;SDS011;20140;49.356;8.812;2022-12-07T03:40:47;12.90;;;8.98;;
33836;SDS011;20140;49.356;8.812;2022-12-07T03:43:29;10.70;;;7.95;;
33836;SDS011;20140;49.356;8.812;2022-12-07T03:46:17;13.65;;;9.18;;
33836;SDS011;20140;49.356;8.812;2022-12-07T03:51:57;11.90;;;8.45;;
33836;SDS011;20140;49.356;8.812;2022-12-07T03:54:34;12.93;;;9.00;;
33836;SDS011;20140;49.356;8.812;2022-12-07T03:57:05;12.73;;;8.55;;
33836;SDS011;20140;49.356;8.812;2022-12-07T03:59:32;11.77;;;8.80;;
33836;SDS011;20140;49.356;8.812;2022-12-07T04:02:02;14.18;;;9.30;;
33836;SDS011;20140;49.356;8.812;2022-12-07T04:04:28;13.50;;;8.73;;
33836;SDS011;20140;49.356;8.812;2022-12-07T04:06:54;11.88;;;9.13;;
33836;SDS011;20140;49.356;8.812;2022-12-07T04:09:20;14.20;;;10.57;;
33836;SDS011;20140;49.356;8.812;2022-12-07T04:11:47;15.05;;;10.80;;
33836;SDS011;20140;49.356;8.812;2022-12-07T04:14:13;15.18;;;9.93;;
33836;SDS011;20140;49.356;8.812;2022-12-07T04:17:05;13.13;;;10.05;;
33836;SDS011;20140;49.356;8.812;2022-12-07T04:19:31;15.20;;;10.73;;
33836;SDS011;20140;49.356;8.812;2022-12-07T04:21:59;14.27;;;10.20;;
33836;SDS011;20140;49.356;8.812;2022-12-07T04:24:26;15.45;;;10.43;;
33836;SDS011;20140;49.356;8.812;2022-12-07T04:26:53;15.23;;;10.90;;
33836;SDS011;20140;49.356;8.812;2022-12-07T04:29:19;13.97;;;9.83;;
33836;SDS011;20140;49.356;8.812;2022-12-07T04:31:44;14.15;;;10.18;;
33836;SDS011;20140;49.356;8.812;2022-12-07T04:34:10;16.05;;;10.38;;
33836;SDS011;20140;49.356;8.812;2022-12-07T04:36:37;11.38;;;9.13;;
33836;SDS011;20140;49.356;8.812;2022-12-07T04:39:04;16.17;;;10.00;;
33836;SDS011;20140;49.356;8.812;2022-12-07T04:41:30;13.63;;;9.43;;
33836;SDS011;20140;49.356;8.812;2022-12-07T04:44:00;10.77;;;9.33;;
33836;SDS011;20140;49.356;8.812;2022-12-07T04:46:28;13.98;;;10.48;;
33836;SDS011;20140;49.356;8.812;2022-12-07T04:48:55;15.20;;;10.48;;
33836;SDS011;20140;49.356;8.812;2022-12-07T04:51:23;13.52;;;9.60;;
33836;SDS011;20140;49.356;8.812;2022-12-07T04:53:50;13.40;;;8.82;;
33836;SDS011;20140;49.356;8.812;2022-12-07T04:56:16;14.18;;;10.05;;
33836;SDS011;20140;49.356;8.812;2022-12-07T04:58:43;13.37;;;9.50;;
33836;SDS011;20140;49.356;8.812;2022-12-07T05:01:09;18.52;;;10.82;;
33836;SDS011;20140;49.356;8.812;2022-12-07T05:03:36;14.80;;;11.15;;
33836;SDS011;20140;49.356;8.812;2022-12-07T05:06:02;16.50;;;11.00;;
33836;SDS011;20140;49.356;8.812;2022-12-07T05:08:28;16.67;;;11.65;;
33836;SDS011;20140;49.356;8.812;2022-12-07T05:10:54;17.20;;;13.30;;
33836;SDS011;20140;49.356;8.812;2022-12-07T05:13:19;16.93;;;12.47;;
33836;SDS011;20140;49.356;8.812;2022-12-07T05:15:46;18.10;;;13.33;;
33836;SDS011;20140;49.356;8.812;2022-12-07T05:18:13;19.70;;;12.45;;
33836;SDS011;20140;49.356;8.812;2022-12-07T05:20:39;18.23;;;12.05;;
33836;SDS011;20140;49.356;8.812;2022-12-07T05:23:05;18.42;;;12.57;;
33836;SDS011;20140;49.356;8.812;2022-12-07T05:25:31;15.93;;;12.17;;
33836;SDS011;20140;49.356;8.812;2022-12-07T05:27:56;19.23;;;13.03;;
33836;SDS011;20140;49.356;8.812;2022-12-07T05:30:23;17.53;;;12.57;;
33836;SDS011;20140;49.356;8.812;2022-12-07T05:32:49;15.50;;;11.98;;
33836;SDS011;20140;49.356;8.812;2022-12-07T05:35:15;15.57;;;11.57;;
33836;SDS011;20140;49.356;8.812;2022-12-07T05:37:40;17.40;;;11.45;;
33836;SDS011;20140;49.356;8.812;2022-12-07T05:40:06;15.75;;;10.63;;
33836;SDS011;20140;49.356;8.812;2022-12-07T05:42:32;12.77;;;9.45;;
33836;SDS011;20140;49.356;8.812;2022-12-07T05:44:58;11.53;;;9.23;;
33836;SDS011;20140;49.356;8.812;2022-12-07T05:47:23;12.27;;;8.43;;
33836;SDS011;20140;49.356;8.812;2022-12-07T05:49:49;11.83;;;9.17;;
33836;SDS011;20140;49.356;8.812;2022-12-07T05:52:14;12.40;;;9.60;;
33836;SDS011;20140;49.356;8.812;2022-12-07T05:54:40;12.10;;;8.13;;
33836;SDS011;20140;49.356;8.812;2022-12-07T05:57:06;13.13;;;9.33;;
33836;SDS011;20140;49.356;8.812;2022-12-07T05:59:31;12.87;;;9.80;;
33836;SDS011;20140;49.356;8.812;2022-12-07T06:01:58;15.03;;;9.20;;
33836;SDS011;20140;49.356;8.812;2022-12-07T06:04:32;12.25;;;9.88;;
33836;SDS011;20140;49.356;8.812;2022-12-07T06:06:59;13.77;;;10.20;;
33836;SDS011;20140;49.356;8.812;2022-12-07T06:09:26;12.18;;;8.82;;
33836;SDS011;20140;49.356;8.812;2022-12-07T06:11:52;13.90;;;9.73;;
33836;SDS011;20140;49.356;8.812;2022-12-07T06:14:37;15.80;;;10.23;;
33836;SDS011;20140;49.356;8.812;2022-12-07T06:17:03;15.60;;;10.43;;
33836;SDS011;20140;49.356;8.812;2022-12-07T06:19:29;14.93;;;10.90;;
33836;SDS011;20140;49.356;8.812;2022-12-07T06:21:55;13.43;;;9.82;;
33836;SDS011;20140;49.356;8.812;2022-12-07T06:24:21;14.33;;;10.17;;
33836;SDS011;20140;49.356;8.812;2022-12-07T06:26:46;16.35;;;11.27;;
33836;SDS011;20140;49.356;8.812;2022-12-07T06:29:13;16.10;;;10.75;;
33836;SDS011;20140;49.356;8.812;2022-12-07T06:31:39;15.77;;;11.13;;
33836;SDS011;20140;49.356;8.812;2022-12-07T06:34:06;14.38;;;10.23;;
33836;SDS011;20140;49.356;8.812;2022-12-07T06:36:34;16.08;;;11.43;;
33836;SDS011;20140;49.356;8.812;2022-12-07T06:38:59;15.05;;;11.13;;
33836;SDS011;20140;49.356;8.812;2022-12-07T06:41:25;16.42;;;11.45;;
33836;SDS011;20140;49.356;8.812;2022-12-07T06:43:50;19.77;;;12.07;;
33836;SDS011;20140;49.356;8.812;2022-12-07T06:46:16;15.25;;;11.63;;
33836;SDS011;20140;49.356;8.812;2022-12-07T06:48:42;15.18;;;10.93;;
33836;SDS011;20140;49.356;8.812;2022-12-07T06:51:09;19.05;;;12.05;;
33836;SDS011;20140;49.356;8.812;2022-12-07T06:53:35;17.73;;;11.77;;
33836;SDS011;20140;49.356;8.812;2022-12-07T06:56:01;17.90;;;11.60;;
33836;SDS011;20140;49.356;8.812;2022-12-07T06:58:27;17.20;;;11.60;;
33836;SDS011;20140;49.356;8.812;2022-12-07T07:00:53;16.75;;;10.70;;
33836;SDS011;20140;49.356;8.812;2022-12-07T07:03:19;15.93;;;11.40;;
33836;SDS011;20140;49.356;8.812;2022-12-07T07:05:44;18.33;;;12.30;;
33836;SDS011;20140;49.356;8.812;2022-12-07T07:08:10;13.60;;;10.53;;
33836;SDS011;20140;49.356;8.812;2022-12-07T07:10:37;17.77;;;11.93;;
33836;SDS011;20140;49.356;8.812;2022-12-07T07:13:03;18.20;;;11.57;;
33836;SDS011;20140;49.356;8.812;2022-12-07T07:15:29;16.38;;;11.55;;
33836;SDS011;20140;49.356;8.812;2022-12-07T07:17:55;16.20;;;12.27;;
33836;SDS011;20140;49.356;8.812;2022-12-07T07:20:20;15.45;;;10.55;;
33836;SDS011;20140;49.356;8.812;2022-12-07T07:22:47;16.60;;;11.40;;
33836;SDS011;20140;49.356;8.812;2022-12-07T07:25:12;15.35;;;11.10;;
33836;SDS011;20140;49.356;8.812;2022-12-07T07:27:38;15.02;;;11.63;;
33836;SDS011;20140;49.356;8.812;2022-12-07T07:30:05;17.93;;;13.07;;
33836;SDS011;20140;49.356;8.812;2022-12-07T07:32:31;18.35;;;11.38;;
33836;SDS011;20140;49.356;8.812;2022-12-07T07:34:57;17.33;;;12.38;;
33836;SDS011;20140;49.356;8.812;2022-12-07T07:37:22;16.25;;;12.18;;
33836;SDS011;20140;49.356;8.812;2022-12-07T07:39:48;17.10;;;12.63;;
33836;SDS011;20140;49.356;8.812;2022-12-07T07:42:13;19.60;;;12.45;;
33836;SDS011;20140;49.356;8.812;2022-12-07T07:44:39;18.75;;;13.23;;
33836;SDS011;20140;49.356;8.812;2022-12-07T07:47:05;19.67;;;12.50;;
33836;SDS011;20140;49.356;8.812;2022-12-07T07:49:30;16.80;;;12.32;;
33836;SDS011;20140;49.356;8.812;2022-12-07T07:51:56;19.08;;;12.80;;
33836;SDS011;20140;49.356;8.812;2022-12-07T07:54:21;17.95;;;12.98;;
33836;SDS011;20140;49.356;8.812;2022-12-07T07:56:47;17.63;;;12.27;;
33836;SDS011;20140;49.356;8.812;2022-12-07T07:59:12;18.00;;;12.57;;
33836;SDS011;20140;49.356;8.812;2022-12-07T08:01:39;18.85;;;12.13;;
33836;SDS011;20140;49.356;8.812;2022-12-07T08:04:04;16.83;;;11.83;;
33836;SDS011;20140;49.356;8.812;2022-12-07T08:06:30;16.03;;;12.50;;
33836;SDS011;20140;49.356;8.812;2022-12-07T08:08:55;17.83;;;11.30;;
33836;SDS011;20140;49.356;8.812;2022-12-07T08:11:23;18.23;;;10.95;;
33836;SDS011;20140;49.356;8.812;2022-12-07T08:13:48;18.40;;;11.45;;
33836;SDS011;20140;49.356;8.812;2022-12-07T08:16:14;19.45;;;11.80;;
33836;SDS011;20140;49.356;8.812;2022-12-07T08:18:42;20.80;;;13.18;;
33836;SDS011;20140;49.356;8.812;2022-12-07T08:21:09;17.80;;;13.02;;
33836;SDS011;20140;49.356;8.812;2022-12-07T08:23:37;16.55;;;12.15;;
33836;SDS011;20140;49.356;8.812;2022-12-07T08:26:03;17.23;;;11.93;;
33836;SDS011;20140;49.356;8.812;2022-12-07T08:28:30;16.05;;;11.63;;
33836;SDS011;20140;49.356;8.812;2022-12-07T08:31:00;14.10;;;11.30;;
33836;SDS011;20140;49.356;8.812;2022-12-07T08:33:30;18.40;;;12.35;;
33836;SDS011;20140;49.356;8.812;2022-12-07T08:36:01;17.70;;;12.27;;
33836;SDS011;20140;49.356;8.812;2022-12-07T08:38:27;18.55;;;11.88;;
33836;SDS011;20140;49.356;8.812;2022-12-07T08:40:56;15.73;;;10.93;;
33836;SDS011;20140;49.356;8.812;2022-12-07T08:43:23;18.83;;;12.73;;
33836;SDS011;20140;49.356;8.812;2022-12-07T08:45:49;16.63;;;12.33;;
33836;SDS011;20140;49.356;8.812;2022-12-07T08:48:24;18.17;;;12.38;;
33836;SDS011;20140;49.356;8.812;2022-12-07T08:50:50;16.15;;;12.20;;
33836;SDS011;20140;49.356;8.812;2022-12-07T08:53:16;20.70;;;12.83;;
33836;SDS011;20140;49.356;8.812;2022-12-07T08:55:43;22.05;;;13.02;;
33836;SDS011;20140;49.356;8.812;2022-12-07T08:58:10;19.30;;;12.18;;
33836;SDS011;20140;49.356;8.812;2022-12-07T09:00:35;19.35;;;12.80;;
33836;SDS011;20140;49.356;8.812;2022-12-07T09:03:01;17.53;;;11.27;;
33836;SDS011;20140;49.356;8.812;2022-12-07T09:05:26;19.57;;;12.37;;
33836;SDS011;20140;49.356;8.812;2022-12-07T09:07:54;16.80;;;11.77;;
33836;SDS011;20140;49.356;8.812;2022-12-07T09:10:21;21.15;;;13.68;;
33836;SDS011;20140;49.356;8.812;2022-12-07T09:12:48;20.77;;;12.77;;
33836;SDS011;20140;49.356;8.812;2022-12-07T09:15:14;19.33;;;12.80;;
33836;SDS011;20140;49.356;8.812;2022-12-07T09:17:39;19.15;;;13.35;;
33836;SDS011;20140;49.356;8.812;2022-12-07T09:20:05;21.87;;;13.33;;
33836;SDS011;20140;49.356;8.812;2022-12-07T09:22:31;20.20;;;12.90;;
33836;SDS011;20140;49.356;8.812;2022-12-07T09:24:58;20.30;;;13.50;;
33836;SDS011;20140;49.356;8.812;2022-12-07T09:27:24;20.20;;;12.32;;
33836;SDS011;20140;49.356;8.812;2022-12-07T09:29:50;18.33;;;12.67;;
33836;SDS011;20140;49.356;8.812;2022-12-07T09:32:15;18.47;;;13.30;;
33836;SDS011;20140;49.356;8.812;2022-12-07T09:34:41;19.63;;;12.80;;
33836;SDS011;20140;49.356;8.812;2022-12-07T09:37:06;17.60;;;12.37;;
33836;SDS011;20140;49.356;8.812;2022-12-07T09:39:32;17.25;;;12.75;;
33836;SDS011;20140;49.356;8.812;2022-12-07T09:41:58;18.13;;;12.73;;
33836;SDS011;20140;49.356;8.812;2022-12-07T09:44:27;18.20;;;12.95;;
33836;SDS011;20140;49.356;8.812;2022-12-07T09:46:53;18.50;;;12.00;;
33836;SDS011;20140;49.356;8.812;2022-12-07T09:49:22;23.30;;;14.57;;
33836;SDS011;20140;49.356;8.812;2022-12-07T09:52:00;19.92;;;12.23;;
33836;SDS011;20140;49.356;8.812;2022-12-07T09:54:33;19.80;;;12.52;;
33836;SDS011;20140;49.356;8.812;2022-12-07T09:57:10;18.98;;;12.55;;
33836;SDS011;20140;49.356;8.812;2022-12-07T09:59:37;21.05;;;13.82;;
33836;SDS011;20140;49.356;8.812;2022-12-07T10:05:06;17.58;;;12.10;;
33836;SDS011;20140;49.356;8.812;2022-12-07T10:07:36;18.60;;;12.50;;
33836;SDS011;20140;49.356;8.812;2022-12-07T10:10:03;17.38;;;12.30;;
33836;SDS011;20140;49.356;8.812;2022-12-07T10:12:39;21.93;;;13.27;;
33836;SDS011;20140;49.356;8.812;2022-12-07T10:15:18;15.88;;;11.40;;
33836;SDS011;20140;49.356;8.812;2022-12-07T10:17:47;21.33;;;13.37;;
33836;SDS011;20140;49.356;8.812;2022-12-07T10:20:22;18.88;;;11.63;;
33836;SDS011;20140;49.356;8.812;2022-12-07T10:22:57;17.23;;;12.90;;
33836;SDS011;20140;49.356;8.812;2022-12-07T10:25:27;19.63;;;12.80;;
33836;SDS011;20140;49.356;8.812;2022-12-07T10:28:00;20.15;;;13.07;;
33836;SDS011;20140;49.356;8.812;2022-12-07T10:30:26;18.60;;;11.63;;
33836;SDS011;20140;49.356;8.812;2022-12-07T10:32:52;17.30;;;12.07;;
33836;SDS011;20140;49.356;8.812;2022-12-07T10:37:51;16.58;;;11.40;;
33836;SDS011;20140;49.356;8.812;2022-12-07T10:40:26;16.77;;;11.68;;
33836;SDS011;20140;49.356;8.812;2022-12-07T10:43:01;15.10;;;10.48;;
33836;SDS011;20140;49.356;8.812;2022-12-07T10:45:31;15.95;;;11.23;;
33836;SDS011;20140;49.356;8.812;2022-12-07T10:50:52;16.25;;;10.73;;
33836;SDS011;20140;49.356;8.812;2022-12-07T10:53:39;18.65;;;12.75;;
33836;SDS011;20140;49.356;8.812;2022-12-07T11:07:07;19.40;;;13.10;;
33836;SDS011;20140;49.356;8.812;2022-12-07T11:12:29;16.33;;;10.90;;
33836;SDS011;20140;49.356;8.812;2022-12-07T11:15:14;18.08;;;13.48;;
33836;SDS011;20140;49.356;8.812;2022-12-07T11:18:02;18.23;;;12.57;;
33836;SDS011;20140;49.356;8.812;2022-12-07T11:26:41;19.20;;;12.52;;
33836;SDS011;20140;49.356;8.812;2022-12-07T11:32:03;16.98;;;11.95;;
33836;SDS011;20140;49.356;8.812;2022-12-07T11:37:21;15.90;;;10.30;;
33836;SDS011;20140;49.356;8.812;2022-12-07T11:40:02;21.57;;;12.43;;
33836;SDS011;20140;49.356;8.812;2022-12-07T11:45:30;16.65;;;11.40;;
33836;SDS011;20140;49.356;8.812;2022-12-07T11:47:59;15.97;;;11.30;;
33836;SDS011;20140;49.356;8.812;2022-12-07T11:53:20;17.65;;;11.88;;
33836;SDS011;20140;49.356;8.812;2022-12-07T12:01:15;16.08;;;10.57;;
33836;SDS011;20140;49.356;8.812;2022-12-07T12:04:01;18.50;;;10.70;;
33836;SDS011;20140;49.356;8.812;2022-12-07T12:06:44;21.00;;;11.63;;
33836;SDS011;20140;49.356;8.812;2022-12-07T12:12:15;17.90;;;9.98;;
33836;SDS011;20140;49.356;8.812;2022-12-07T12:14:48;14.18;;;10.02;;
33836;SDS011;20140;49.356;8.812;2022-12-07T12:20:23;15.45;;;11.25;;
33836;SDS011;20140;49.356;8.812;2022-12-07T12:23:10;17.90;;;11.55;;
33836;SDS011;20140;49.356;8.812;2022-12-07T12:25:41;14.05;;;9.60;;
33836;SDS011;20140;49.356;8.812;2022-12-07T12:28:21;15.32;;;11.35;;
33836;SDS011;20140;49.356;8.812;2022-12-07T12:31:32;14.30;;;10.75;;
33836;SDS011;20140;49.356;8.812;2022-12-07T12:33:52;14.82;;;10.35;;
33836;SDS011;20140;49.356;8.812;2022-12-07T12:41:51;16.60;;;10.57;;
33836;SDS011;20140;49.356;8.812;2022-12-07T12:46:50;16.83;;;11.00;;
33836;SDS011;20140;49.356;8.812;2022-12-07T12:51:49;15.07;;;10.10;;
33836;SDS011;20140;49.356;8.812;2022-12-07T12:54:29;15.57;;;10.50;;
33836;SDS011;20140;49.356;8.812;2022-12-07T12:59:34;16.58;;;11.00;;
33836;SDS011;20140;49.356;8.812;2022-12-07T13:10:37;17.00;;;11.23;;
33836;SDS011;20140;49.356;8.812;2022-12-07T13:15:44;14.75;;;9.73;;
33836;SDS011;20140;49.356;8.812;2022-12-07T13:20:50;13.93;;;10.68;;
33836;SDS011;20140;49.356;8.812;2022-12-07T13:23:21;18.92;;;11.07;;
33836;SDS011;20140;49.356;8.812;2022-12-07T13:31:37;16.85;;;10.38;;
33836;SDS011;20140;49.356;8.812;2022-12-07T13:34:27;15.80;;;10.53;;
33836;SDS011;20140;49.356;8.812;2022-12-07T13:36:55;19.25;;;11.75;;
33836;SDS011;20140;49.356;8.812;2022-12-07T13:39:22;15.55;;;10.73;;
33836;SDS011;20140;49.356;8.812;2022-12-07T13:41:50;15.68;;;10.50;;
33836;SDS011;20140;49.356;8.812;2022-12-07T13:44:18;16.15;;;10.18;;
33836;SDS011;20140;49.356;8.812;2022-12-07T13:49:28;16.48;;;11.35;;
33836;SDS011;20140;49.356;8.812;2022-12-07T13:52:08;16.17;;;10.48;;
33836;SDS011;20140;49.356;8.812;2022-12-07T13:54:43;18.20;;;11.23;;
33836;SDS011;20140;49.356;8.812;2022-12-07T13:57:38;16.58;;;10.82;;
33836;SDS011;20140;49.356;8.812;2022-12-07T14:00:05;18.70;;;12.60;;
33836;SDS011;20140;49.356;8.812;2022-12-07T14:02:53;15.48;;;10.63;;
33836;SDS011;20140;49.356;8.812;2022-12-07T14:05:24;15.60;;;11.10;;
33836;SDS011;20140;49.356;8.812;2022-12-07T14:08:01;18.25;;;9.82;;
33836;SDS011;20140;49.356;8.812;2022-12-07T14:10:28;17.15;;;10.57;;
33836;SDS011;20140;49.356;8.812;2022-12-07T14:15:52;15.70;;;9.80;;
33836;SDS011;20140;49.356;8.812;2022-12-07T14:18:28;17.00;;;11.05;;
33836;SDS011;20140;49.356;8.812;2022-12-07T14:23:34;15.65;;;10.85;;
33836;SDS011;20140;49.356;8.812;2022-12-07T14:26:06;15.95;;;10.32;;
33836;SDS011;20140;49.356;8.812;2022-12-07T14:28:36;15.40;;;9.95;;
33836;SDS011;20140;49.356;8.812;2022-12-07T14:31:02;15.65;;;11.88;;
33836;SDS011;20140;49.356;8.812;2022-12-07T14:33:28;14.27;;;10.55;;
33836;SDS011;20140;49.356;8.812;2022-12-07T14:35:54;16.50;;;11.20;;
33836;SDS011;20140;49.356;8.812;2022-12-07T14:38:22;16.85;;;11.73;;
33836;SDS011;20140;49.356;8.812;2022-12-07T14:40:49;14.97;;;10.77;;
33836;SDS011;20140;49.356;8.812;2022-12-07T14:43:18;17.42;;;11.65;;
33836;SDS011;20140;49.356;8.812;2022-12-07T14:45:45;17.08;;;11.68;;
33836;SDS011;20140;49.356;8.812;2022-12-07T14:48:12;15.73;;;10.43;;
33836;SDS011;20140;49.356;8.812;2022-12-07T14:50:41;15.90;;;11.00;;
33836;SDS011;20140;49.356;8.812;2022-12-07T14:53:16;15.40;;;10.50;;
33836;SDS011;20140;49.356;8.812;2022-12-07T14:55:43;17.00;;;9.73;;
33836;SDS011;20140;49.356;8.812;2022-12-07T14:58:13;18.33;;;10.63;;
33836;SDS011;20140;49.356;8.812;2022-12-07T15:00:39;15.15;;;10.02;;
33836;SDS011;20140;49.356;8.812;2022-12-07T15:03:05;15.23;;;10.15;;
33836;SDS011;20140;49.356;8.812;2022-12-07T15:05:30;15.30;;;9.60;;
33836;SDS011;20140;49.356;8.812;2022-12-07T15:07:56;13.93;;;9.45;;
33836;SDS011;20140;49.356;8.812;2022-12-07T15:10:23;13.52;;;9.90;;
33836;SDS011;20140;49.356;8.812;2022-12-07T15:12:55;15.52;;;11.50;;
33836;SDS011;20140;49.356;8.812;2022-12-07T15:15:41;18.02;;;11.55;;
33836;SDS011;20140;49.356;8.812;2022-12-07T15:18:07;18.00;;;11.60;;
33836;SDS011;20140;49.356;8.812;2022-12-07T15:20:32;15.68;;;11.25;;
33836;SDS011;20140;49.356;8.812;2022-12-07T15:22:58;16.43;;;11.00;;
33836;SDS011;20140;49.356;8.812;2022-12-07T15:25:23;17.73;;;11.73;;
33836;SDS011;20140;49.356;8.812;2022-12-07T15:27:49;14.50;;;10.63;;
33836;SDS011;20140;49.356;8.812;2022-12-07T15:30:15;18.07;;;11.53;;
33836;SDS011;20140;49.356;8.812;2022-12-07T15:32:40;18.70;;;11.98;;
33836;SDS011;20140;49.356;8.812;2022-12-07T15:35:06;20.07;;;11.87;;
33836;SDS011;20140;49.356;8.812;2022-12-07T15:37:32;17.13;;;10.93;;
33836;SDS011;20140;49.356;8.812;2022-12-07T15:39:57;17.13;;;11.50;;
33836;SDS011;20140;49.356;8.812;2022-12-07T15:42:23;20.03;;;11.70;;
33836;SDS011;20140;49.356;8.812;2022-12-07T15:44:49;17.73;;;11.17;;
33836;SDS011;20140;49.356;8.812;2022-12-07T15:47:39;15.73;;;11.80;;
33836;SDS011;20140;49.356;8.812;2022-12-07T15:50:09;20.05;;;12.85;;
33836;SDS011;20140;49.356;8.812;2022-12-07T15:52:36;19.73;;;12.48;;
33836;SDS011;20140;49.356;8.812;2022-12-07T15:55:02;18.88;;;12.00;;
33836;SDS011;20140;49.356;8.812;2022-12-07T15:57:29;23.70;;;13.63;;
33836;SDS011;20140;49.356;8.812;2022-12-07T15:59:55;18.92;;;11.65;;
33836;SDS011;20140;49.356;8.812;2022-12-07T16:02:20;19.00;;;12.73;;
33836;SDS011;20140;49.356;8.812;2022-12-07T16:04:47;17.80;;;11.20;;
33836;SDS011;20140;49.356;8.812;2022-12-07T16:07:13;16.43;;;10.50;;
33836;SDS011;20140;49.356;8.812;2022-12-07T16:09:40;18.95;;;11.90;;
33836;SDS011;20140;49.356;8.812;2022-12-07T16:12:06;19.67;;;11.80;;
33836;SDS011;20140;49.356;8.812;2022-12-07T16:14:32;15.60;;;11.27;;
33836;SDS011;20140;49.356;8.812;2022-12-07T16:16:58;16.53;;;11.97;;
33836;SDS011;20140;49.356;8.812;2022-12-07T16:19:24;17.58;;;11.02;;
33836;SDS011;20140;49.356;8.812;2022-12-07T16:21:49;17.30;;;11.50;;
33836;SDS011;20140;49.356;8.812;2022-12-07T16:24:15;19.05;;;10.70;;
33836;SDS011;20140;49.356;8.812;2022-12-07T16:26:41;15.65;;;10.65;;
33836;SDS011;20140;49.356;8.812;2022-12-07T16:29:09;17.80;;;11.63;;
33836;SDS011;20140;49.356;8.812;2022-12-07T16:31:36;14.07;;;10.13;;